Lake Havasu City, AZ (86403)

1:44 AM MST on July 27, 2016 (GMT -0700)
Huntington Dr | | Change Station

Elev 778 ft 34.51 °N, 114.33 °W | Updated 17 seconds ago

Mostly Cloudy
Mostly Cloudy
100.4 °F
Feels Like 104 °F
N
2.2
Wind Variable Wind from East
Gusts 3.1 mph

Today
High -- | Low -- °F
--% Chance of Precip.
Yesterday
High -- | Low -- °F
Precip. -- in
Pressure 29.60 in
Visibility 10.0 miles
Clouds Mostly Cloudy 11000 ft
Heat Index 104 °F
Dew Point 65 °F
Humidity 32%
Rainfall 0.00 in
Snow Depth Not available.
5:44 AM 7:42 PM
Last Quarter, 45% visible
METAR KEED 270756Z AUTO 24007KT 10SM BKN110 40/12 A2973 RMK AO2 SLP023 T04000122 404670333 $
Pressure 29.60 in
Visibility 10.0 miles
Clouds Mostly Cloudy 11000 ft
Heat Index 104 °F
Dew Point 65 °F
Humidity 32%
Rainfall 0.00 in
Snow Depth Not available.
5:44 AM 7:42 PM
Last Quarter, 45% visible
METAR KEED 270756Z AUTO 24007KT 10SM BKN110 40/12 A2973 RMK AO2 SLP023 T04000122 404670333 $

10-Day Weather Forecast

Almanac

Astronomy

Jul. 27, 2016 Rise Set
Actual Time
Civil Twilight
Nautical Twilight
Astronomical Twilight
Moon
Length of Visible Light
Length of Day
Tomorrow will be .
, % of the Moon is Illuminated

Today's Extremes

State Highs State Lows

Community

WunderPhotos

Upload Photos

1,927,818 photos uploaded!

WunderBlog® & News

Nearby

Air Quality

  Air Quality AQ Index Pollutant
Not available.

Snow Depth

Station Depth Elevation

Earthquake Activity

City Distance Mag. Time & Date
Minimum magnitude displayed is 2.5.

Coastal Water Temperatures

Place Temperature

Stations

Nearby Weather Stations

Station Location Temp. Windchill Dew Point Humidity Wind Precip. Elev Updated Type
                   

Watches & Warnings

There are currently no watches in effect.